sensor_id;sensor_type;location;lat;lon;timestamp;pressure;altitude;pressure_sealevel;temperature;humidity
58245;BME280;44550;43.864;25.986;2022-09-09T00:02:35;101068.50;;;20.77;58.54
58245;BME280;44550;43.864;25.986;2022-09-09T00:06:43;101056.94;;;20.78;58.32
58245;BME280;44550;43.864;25.986;2022-09-09T00:10:45;101064.22;;;20.73;58.63
58245;BME280;44550;43.864;25.986;2022-09-09T00:14:51;101068.75;;;20.70;58.37
58245;BME280;44550;43.864;25.986;2022-09-09T00:19:00;101080.09;;;20.75;58.30
58245;BME280;44550;43.864;25.986;2022-09-09T00:23:14;101076.75;;;20.68;58.38
58245;BME280;44550;43.864;25.986;2022-09-09T00:27:31;101075.19;;;20.61;58.42
58245;BME280;44550;43.864;25.986;2022-09-09T00:31:38;101083.84;;;20.68;58.31
58245;BME280;44550;43.864;25.986;2022-09-09T00:35:41;101086.66;;;20.63;58.27
58245;BME280;44550;43.864;25.986;2022-09-09T00:39:45;101051.06;;;20.37;58.51
58245;BME280;44550;43.864;25.986;2022-09-09T00:43:53;101077.06;;;20.57;58.16
58245;BME280;44550;43.864;25.986;2022-09-09T00:48:03;101069.81;;;20.62;58.11
58245;BME280;44550;43.864;25.986;2022-09-09T00:52:17;101082.22;;;20.63;57.90
58245;BME280;44550;43.864;25.986;2022-09-09T00:56:20;101080.53;;;20.59;58.14
58245;BME280;44550;43.864;25.986;2022-09-09T01:00:33;101064.94;;;20.47;58.30
58245;BME280;44550;43.864;25.986;2022-09-09T01:04:36;101083.19;;;20.59;58.04
58245;BME280;44550;43.864;25.986;2022-09-09T01:08:47;101079.63;;;20.60;57.83
58245;BME280;44550;43.864;25.986;2022-09-09T01:12:55;101072.88;;;20.80;57.25
58245;BME280;44550;43.864;25.986;2022-09-09T01:17:02;101062.03;;;20.86;56.70
58245;BME280;44550;43.864;25.986;2022-09-09T01:21:18;101055.66;;;20.92;56.59
58245;BME280;44550;43.864;25.986;2022-09-09T01:25:30;101051.66;;;21.06;55.76
58245;BME280;44550;43.864;25.986;2022-09-09T01:29:34;101048.53;;;20.92;55.97
58245;BME280;44550;43.864;25.986;2022-09-09T01:33:34;101056.31;;;21.00;55.77
58245;BME280;44550;43.864;25.986;2022-09-09T01:37:35;101040.44;;;20.97;55.70
58245;BME280;44550;43.864;25.986;2022-09-09T01:41:35;101042.44;;;20.90;55.64
58245;BME280;44550;43.864;25.986;2022-09-09T01:45:48;101018.84;;;20.48;56.47
58245;BME280;44550;43.864;25.986;2022-09-09T01:49:49;101000.06;;;20.25;56.81
58245;BME280;44550;43.864;25.986;2022-09-09T01:53:50;101044.50;;;20.51;56.71
58245;BME280;44550;43.864;25.986;2022-09-09T01:57:56;101035.72;;;20.47;56.67
58245;BME280;44550;43.864;25.986;2022-09-09T02:02:10;101030.13;;;20.27;57.07
58245;BME280;44550;43.864;25.986;2022-09-09T02:06:20;101044.34;;;20.24;57.13
58245;BME280;44550;43.864;25.986;2022-09-09T02:10:40;101020.47;;;19.91;57.55
58245;BME280;44550;43.864;25.986;2022-09-09T02:14:48;101028.53;;;19.88;57.46
58245;BME280;44550;43.864;25.986;2022-09-09T02:18:55;101030.34;;;19.86;57.26
58245;BME280;44550;43.864;25.986;2022-09-09T02:22:59;101035.47;;;19.94;57.23
58245;BME280;44550;43.864;25.986;2022-09-09T02:27:03;101037.19;;;19.95;57.27
58245;BME280;44550;43.864;25.986;2022-09-09T02:31:06;101024.69;;;20.00;56.79
58245;BME280;44550;43.864;25.986;2022-09-09T02:35:12;101042.50;;;20.26;56.14
58245;BME280;44550;43.864;25.986;2022-09-09T02:39:16;101050.00;;;20.43;55.68
58245;BME280;44550;43.864;25.986;2022-09-09T02:43:20;101061.31;;;20.81;54.86
58245;BME280;44550;43.864;25.986;2022-09-09T02:47:34;101079.72;;;21.15;54.09
58245;BME280;44550;43.864;25.986;2022-09-09T02:51:44;101066.72;;;21.34;53.44
58245;BME280;44550;43.864;25.986;2022-09-09T02:55:51;101020.94;;;21.24;52.67
58245;BME280;44550;43.864;25.986;2022-09-09T02:59:52;101072.69;;;21.42;52.60
58245;BME280;44550;43.864;25.986;2022-09-09T03:03:54;101051.28;;;20.89;53.78
58245;BME280;44550;43.864;25.986;2022-09-09T03:08:01;101024.38;;;20.72;53.92
58245;BME280;44550;43.864;25.986;2022-09-09T03:12:05;101057.66;;;21.13;53.53
58245;BME280;44550;43.864;25.986;2022-09-09T03:16:10;101059.28;;;21.17;53.22
58245;BME280;44550;43.864;25.986;2022-09-09T03:20:23;101056.28;;;21.28;53.76
58245;BME280;44550;43.864;25.986;2022-09-09T03:24:31;100980.56;;;21.11;52.72
58245;BME280;44550;43.864;25.986;2022-09-09T03:47:20;101065.66;;;20.54;55.59
58245;BME280;44550;43.864;25.986;2022-09-09T03:51:38;101057.94;;;21.04;53.96
58245;BME280;44550;43.864;25.986;2022-09-09T03:55:53;101050.84;;;20.75;53.92
58245;BME280;44550;43.864;25.986;2022-09-09T04:00:08;101052.38;;;20.54;54.79
58245;BME280;44550;43.864;25.986;2022-09-09T04:04:21;101056.88;;;20.50;55.08
58245;BME280;44550;43.864;25.986;2022-09-09T04:08:21;101058.94;;;20.40;55.34
58245;BME280;44550;43.864;25.986;2022-09-09T04:12:25;101069.38;;;20.47;55.50
58245;BME280;44550;43.864;25.986;2022-09-09T04:16:27;101052.22;;;20.27;55.66
58245;BME280;44550;43.864;25.986;2022-09-09T04:20:30;101046.16;;;20.22;55.70
58245;BME280;44550;43.864;25.986;2022-09-09T04:24:30;101057.63;;;20.55;55.03
58245;BME280;44550;43.864;25.986;2022-09-09T04:28:34;101060.19;;;20.60;54.64
58245;BME280;44550;43.864;25.986;2022-09-09T04:32:36;101053.63;;;21.00;53.55
58245;BME280;44550;43.864;25.986;2022-09-09T04:36:41;101014.28;;;21.11;53.18
58245;BME280;44550;43.864;25.986;2022-09-09T04:40:42;101063.41;;;21.80;51.69
58245;BME280;44550;43.864;25.986;2022-09-09T04:44:43;101068.81;;;21.52;51.87
58245;BME280;44550;43.864;25.986;2022-09-09T04:48:42;101055.84;;;21.42;52.21
58245;BME280;44550;43.864;25.986;2022-09-09T04:52:45;101070.69;;;21.21;52.73
58245;BME280;44550;43.864;25.986;2022-09-09T04:56:45;101066.59;;;21.10;54.04
58245;BME280;44550;43.864;25.986;2022-09-09T05:00:45;101058.72;;;21.35;53.12
58245;BME280;44550;43.864;25.986;2022-09-09T05:04:48;101062.69;;;21.49;52.71
58245;BME280;44550;43.864;25.986;2022-09-09T05:08:50;101065.97;;;21.84;52.01
58245;BME280;44550;43.864;25.986;2022-09-09T05:12:53;101054.94;;;21.94;51.75
58245;BME280;44550;43.864;25.986;2022-09-09T05:16:55;101060.59;;;22.10;51.56
58245;BME280;44550;43.864;25.986;2022-09-09T05:20:58;101060.44;;;21.90;51.69
58245;BME280;44550;43.864;25.986;2022-09-09T05:25:02;101057.19;;;21.55;53.05
58245;BME280;44550;43.864;25.986;2022-09-09T05:29:05;101067.16;;;21.75;53.09
58245;BME280;44550;43.864;25.986;2022-09-09T05:45:47;101054.88;;;23.37;48.59
58245;BME280;44550;43.864;25.986;2022-09-09T05:49:48;101047.56;;;23.20;49.02
58245;BME280;44550;43.864;25.986;2022-09-09T05:58:59;101047.28;;;22.82;50.33
58245;BME280;44550;43.864;25.986;2022-09-09T06:03:10;101039.16;;;22.85;50.11
58245;BME280;44550;43.864;25.986;2022-09-09T06:07:16;101022.78;;;22.94;51.13
58245;BME280;44550;43.864;25.986;2022-09-09T06:11:18;101030.94;;;23.13;50.65
58245;BME280;44550;43.864;25.986;2022-09-09T06:15:21;101000.41;;;23.20;50.25
58245;BME280;44550;43.864;25.986;2022-09-09T06:19:24;101008.03;;;23.50;50.17
58245;BME280;44550;43.864;25.986;2022-09-09T06:23:25;101018.56;;;23.75;49.28
58245;BME280;44550;43.864;25.986;2022-09-09T06:27:27;101025.31;;;24.04;48.51
58245;BME280;44550;43.864;25.986;2022-09-09T06:31:30;101030.81;;;24.59;47.72
58245;BME280;44550;43.864;25.986;2022-09-09T06:35:54;101032.91;;;24.91;46.26
58245;BME280;44550;43.864;25.986;2022-09-09T07:06:18;101032.66;;;28.21;37.24
58245;BME280;44550;43.864;25.986;2022-09-09T07:10:27;101026.72;;;28.59;36.86
58245;BME280;44550;43.864;25.986;2022-09-09T07:15:10;101026.22;;;28.38;37.19
58245;BME280;44550;43.864;25.986;2022-09-09T07:24:45;101026.28;;;28.79;37.68
58245;BME280;44550;43.864;25.986;2022-09-09T07:30:15;101018.88;;;29.24;35.40
58245;BME280;44550;43.864;25.986;2022-09-09T07:35:37;101023.56;;;29.48;36.30
58245;BME280;44550;43.864;25.986;2022-09-09T07:40:45;101030.69;;;30.40;33.76
58245;BME280;44550;43.864;25.986;2022-09-09T07:45:07;101022.91;;;30.72;32.19
58245;BME280;44550;43.864;25.986;2022-09-09T07:49:43;101036.06;;;30.40;33.25
58245;BME280;44550;43.864;25.986;2022-09-09T07:53:58;101040.06;;;30.34;33.86
58245;BME280;44550;43.864;25.986;2022-09-09T08:04:45;101042.19;;;31.04;33.00
58245;BME280;44550;43.864;25.986;2022-09-09T08:55:55;101004.72;;;33.37;30.49
58245;BME280;44550;43.864;25.986;2022-09-09T09:00:25;100991.50;;;33.44;31.18
58245;BME280;44550;43.864;25.986;2022-09-09T09:04:54;100983.38;;;33.55;30.03
58245;BME280;44550;43.864;25.986;2022-09-09T09:09:24;100975.09;;;33.78;30.42
58245;BME280;44550;43.864;25.986;2022-09-09T09:14:25;100968.94;;;33.76;29.86
58245;BME280;44550;43.864;25.986;2022-09-09T09:19:32;100962.97;;;33.61;31.21
58245;BME280;44550;43.864;25.986;2022-09-09T09:24:16;100970.72;;;33.65;30.54
58245;BME280;44550;43.864;25.986;2022-09-09T09:28:39;100972.31;;;33.68;30.86
58245;BME280;44550;43.864;25.986;2022-09-09T09:33:20;100975.63;;;33.51;31.54
58245;BME280;44550;43.864;25.986;2022-09-09T09:38:22;100956.53;;;33.41;30.36
58245;BME280;44550;43.864;25.986;2022-09-09T09:43:25;100922.91;;;33.02;30.94
58245;BME280;44550;43.864;25.986;2022-09-09T10:05:44;100943.53;;;33.35;31.52
58245;BME280;44550;43.864;25.986;2022-09-09T10:15:36;100938.78;;;33.69;31.30
58245;BME280;44550;43.864;25.986;2022-09-09T10:20:26;100945.66;;;34.04;29.39
58245;BME280;44550;43.864;25.986;2022-09-09T10:30:26;100952.88;;;33.94;30.03
58245;BME280;44550;43.864;25.986;2022-09-09T10:35:24;100940.00;;;34.17;28.83
58245;BME280;44550;43.864;25.986;2022-09-09T10:39:54;100925.28;;;34.09;30.25
58245;BME280;44550;43.864;25.986;2022-09-09T10:44:25;100932.75;;;34.27;29.62
58245;BME280;44550;43.864;25.986;2022-09-09T10:48:46;100919.94;;;34.38;30.46
58245;BME280;44550;43.864;25.986;2022-09-09T10:52:58;100916.91;;;34.32;30.19
58245;BME280;44550;43.864;25.986;2022-09-09T10:57:17;100925.03;;;34.22;30.35
58245;BME280;44550;43.864;25.986;2022-09-09T11:01:45;100932.56;;;34.09;29.24
58245;BME280;44550;43.864;25.986;2022-09-09T11:06:09;100926.38;;;34.37;28.54
58245;BME280;44550;43.864;25.986;2022-09-09T11:10:39;100886.50;;;34.38;29.97
58245;BME280;44550;43.864;25.986;2022-09-09T11:15:23;100916.03;;;34.91;28.43
58245;BME280;44550;43.864;25.986;2022-09-09T12:00:33;100898.00;;;35.76;27.87
58245;BME280;44550;43.864;25.986;2022-09-09T12:10:59;100871.56;;;35.96;27.24
58245;BME280;44550;43.864;25.986;2022-09-09T12:16:01;100888.13;;;36.40;26.31
58245;BME280;44550;43.864;25.986;2022-09-09T12:20:32;100867.41;;;36.47;25.45
58245;BME280;44550;43.864;25.986;2022-09-09T12:25:26;100858.59;;;36.35;25.43
58245;BME280;44550;43.864;25.986;2022-09-09T12:35:49;100866.06;;;35.41;26.70
58245;BME280;44550;43.864;25.986;2022-09-09T12:40:33;100854.59;;;35.47;28.50
58245;BME280;44550;43.864;25.986;2022-09-09T12:45:20;100848.38;;;35.17;26.67
58245;BME280;44550;43.864;25.986;2022-09-09T12:49:46;100838.06;;;35.01;27.78
58245;BME280;44550;43.864;25.986;2022-09-09T12:54:14;100817.47;;;35.09;28.99
58245;BME280;44550;43.864;25.986;2022-09-09T12:59:21;100823.47;;;35.12;28.70
58245;BME280;44550;43.864;25.986;2022-09-09T13:09:53;100816.34;;;34.82;29.94
58245;BME280;44550;43.864;25.986;2022-09-09T13:15:04;100809.63;;;34.86;29.00
58245;BME280;44550;43.864;25.986;2022-09-09T13:20:28;100799.75;;;34.85;30.09
58245;BME280;44550;43.864;25.986;2022-09-09T13:35:51;100804.31;;;34.94;30.78
58245;BME280;44550;43.864;25.986;2022-09-09T13:40:56;100788.44;;;34.90;31.18
58245;BME280;44550;43.864;25.986;2022-09-09T13:56:28;100787.34;;;34.73;33.86
58245;BME280;44550;43.864;25.986;2022-09-09T14:00:59;100782.63;;;34.65;32.85
58245;BME280;44550;43.864;25.986;2022-09-09T14:11:12;100779.03;;;34.45;32.94
58245;BME280;44550;43.864;25.986;2022-09-09T14:15:38;100772.03;;;34.23;32.39
58245;BME280;44550;43.864;25.986;2022-09-09T14:20:15;100776.59;;;34.13;33.75
58245;BME280;44550;43.864;25.986;2022-09-09T14:37:16;100763.72;;;34.73;32.18
58245;BME280;44550;43.864;25.986;2022-09-09T14:42:23;100768.88;;;34.86;31.88
58245;BME280;44550;43.864;25.986;2022-09-09T15:05:35;100772.28;;;34.98;34.76
58245;BME280;44550;43.864;25.986;2022-09-09T15:10:27;100764.69;;;35.01;35.74
58245;BME280;44550;43.864;25.986;2022-09-09T15:14:49;100765.75;;;34.81;36.69
58245;BME280;44550;43.864;25.986;2022-09-09T15:43:42;100833.00;;;32.43;50.31
58245;BME280;44550;43.864;25.986;2022-09-09T17:21:12;100842.28;;;28.68;49.33
58245;BME280;44550;43.864;25.986;2022-09-09T18:33:35;100887.06;;;29.09;51.73
58245;BME280;44550;43.864;25.986;2022-09-09T18:39:46;100903.00;;;28.16;54.17
58245;BME280;44550;43.864;25.986;2022-09-09T18:43:04;100904.34;;;27.66;55.36
58245;BME280;44550;43.864;25.986;2022-09-09T18:51:59;100918.94;;;27.62;56.00
58245;BME280;44550;43.864;25.986;2022-09-09T18:56:15;100911.88;;;27.31;55.97
58245;BME280;44550;43.864;25.986;2022-09-09T19:01:02;100918.59;;;27.08;56.84
58245;BME280;44550;43.864;25.986;2022-09-09T19:05:32;100912.81;;;27.00;56.44
58245;BME280;44550;43.864;25.986;2022-09-09T19:10:37;100887.59;;;26.72;56.78
58245;BME280;44550;43.864;25.986;2022-09-09T19:15:08;100906.63;;;26.83;56.78
58245;BME280;44550;43.864;25.986;2022-09-09T19:19:13;100901.84;;;26.88;55.88
58245;BME280;44550;43.864;25.986;2022-09-09T19:28:18;100884.16;;;27.00;54.90
58245;BME280;44550;43.864;25.986;2022-09-09T19:32:43;100890.03;;;27.07;55.06
58245;BME280;44550;43.864;25.986;2022-09-09T19:36:52;100888.81;;;27.12;55.80
58245;BME280;44550;43.864;25.986;2022-09-09T19:41:18;100879.25;;;26.92;56.65
58245;BME280;44550;43.864;25.986;2022-09-09T19:51:00;100879.66;;;26.55;58.17
58245;BME280;44550;43.864;25.986;2022-09-09T20:00:24;100872.06;;;26.63;58.27
58245;BME280;44550;43.864;25.986;2022-09-09T20:05:39;100868.19;;;26.53;57.99
58245;BME280;44550;43.864;25.986;2022-09-09T20:09:59;100861.56;;;26.58;57.31
58245;BME280;44550;43.864;25.986;2022-09-09T20:14:00;100871.63;;;26.55;57.20
58245;BME280;44550;43.864;25.986;2022-09-09T20:18:01;100860.97;;;26.37;57.35
58245;BME280;44550;43.864;25.986;2022-09-09T20:22:05;100851.91;;;26.08;57.76
58245;BME280;44550;43.864;25.986;2022-09-09T20:26:19;100853.69;;;25.59;58.93
58245;BME280;44550;43.864;25.986;2022-09-09T20:30:22;100851.16;;;25.22;60.18
58245;BME280;44550;43.864;25.986;2022-09-09T20:39:21;100843.13;;;25.05;60.31
58245;BME280;44550;43.864;25.986;2022-09-09T20:44:05;100857.94;;;25.12;59.37
58245;BME280;44550;43.864;25.986;2022-09-09T20:48:30;100863.38;;;25.11;59.21
58245;BME280;44550;43.864;25.986;2022-09-09T20:58:30;100878.50;;;25.62;58.55
58245;BME280;44550;43.864;25.986;2022-09-09T21:03:43;100872.03;;;26.31;56.47
58245;BME280;44550;43.864;25.986;2022-09-09T21:08:39;100874.13;;;26.58;55.67
58245;BME280;44550;43.864;25.986;2022-09-09T21:13:38;100873.00;;;26.46;56.10
58245;BME280;44550;43.864;25.986;2022-09-09T21:24:09;100884.06;;;26.71;53.82
58245;BME280;44550;43.864;25.986;2022-09-09T21:28:44;100881.44;;;26.86;53.59
58245;BME280;44550;43.864;25.986;2022-09-09T21:32:49;100868.06;;;27.00;52.94
58245;BME280;44550;43.864;25.986;2022-09-09T21:36:52;100869.41;;;26.77;53.62
58245;BME280;44550;43.864;25.986;2022-09-09T21:41:30;100873.00;;;26.62;54.37
58245;BME280;44550;43.864;25.986;2022-09-09T21:45:34;100871.47;;;26.88;54.22
58245;BME280;44550;43.864;25.986;2022-09-09T21:49:44;100868.53;;;26.92;53.62
58245;BME280;44550;43.864;25.986;2022-09-09T21:53:53;100868.97;;;26.85;54.06
58245;BME280;44550;43.864;25.986;2022-09-09T21:58:58;100861.59;;;26.88;54.39
58245;BME280;44550;43.864;25.986;2022-09-09T22:03:36;100864.88;;;26.63;55.61
58245;BME280;44550;43.864;25.986;2022-09-09T22:08:33;100858.31;;;26.53;55.36
58245;BME280;44550;43.864;25.986;2022-09-09T22:13:11;100864.44;;;26.23;56.57
58245;BME280;44550;43.864;25.986;2022-09-09T22:17:39;100859.41;;;25.86;57.94
58245;BME280;44550;43.864;25.986;2022-09-09T22:22:08;100862.03;;;25.37;59.15
58245;BME280;44550;43.864;25.986;2022-09-09T22:26:31;100855.25;;;25.47;58.74
58245;BME280;44550;43.864;25.986;2022-09-09T22:30:33;100853.44;;;25.47;58.07
58245;BME280;44550;43.864;25.986;2022-09-09T22:35:12;100845.50;;;24.94;59.53
58245;BME280;44550;43.864;25.986;2022-09-09T22:39:17;100841.78;;;24.61;60.17
58245;BME280;44550;43.864;25.986;2022-09-09T22:43:22;100846.72;;;24.33;60.49
58245;BME280;44550;43.864;25.986;2022-09-09T22:58:55;100847.53;;;23.97;60.59
58245;BME280;44550;43.864;25.986;2022-09-09T23:07:44;100843.34;;;24.10;58.89
58245;BME280;44550;43.864;25.986;2022-09-09T23:17:28;100826.53;;;24.08;57.10
58245;BME280;44550;43.864;25.986;2022-09-09T23:31:58;100825.47;;;24.30;55.90
58245;BME280;44550;43.864;25.986;2022-09-09T23:42:44;100824.59;;;23.93;56.15
